sensor_id;sensor_type;location;lat;lon;timestamp;temperature;humidity
15257;DHT22;7731;50.720;6.912;2022-11-25T00:00:45;7.80;99.90
15257;DHT22;7731;50.720;6.912;2022-11-25T00:03:18;7.90;99.90
15257;DHT22;7731;50.720;6.912;2022-11-25T00:05:51;7.90;99.90
15257;DHT22;7731;50.720;6.912;2022-11-25T00:08:33;7.90;99.90
15257;DHT22;7731;50.720;6.912;2022-11-25T00:11:06;7.90;99.90
15257;DHT22;7731;50.720;6.912;2022-11-25T00:13:40;7.80;99.90
15257;DHT22;7731;50.720;6.912;2022-11-25T00:16:17;7.70;99.90
15257;DHT22;7731;50.720;6.912;2022-11-25T00:18:58;7.50;99.90
15257;DHT22;7731;50.720;6.912;2022-11-25T00:21:31;7.50;99.90
15257;DHT22;7731;50.720;6.912;2022-11-25T00:24:06;7.50;99.90
15257;DHT22;7731;50.720;6.912;2022-11-25T00:26:36;7.50;99.90
15257;DHT22;7731;50.720;6.912;2022-11-25T00:29:11;7.60;99.90
15257;DHT22;7731;50.720;6.912;2022-11-25T00:31:41;7.70;99.90
15257;DHT22;7731;50.720;6.912;2022-11-25T00:34:15;7.60;99.90
15257;DHT22;7731;50.720;6.912;2022-11-25T00:36:47;7.70;99.90
15257;DHT22;7731;50.720;6.912;2022-11-25T00:39:20;7.60;99.90
15257;DHT22;7731;50.720;6.912;2022-11-25T00:41:51;7.60;99.90
15257;DHT22;7731;50.720;6.912;2022-11-25T00:44:34;7.60;99.90
15257;DHT22;7731;50.720;6.912;2022-11-25T00:47:13;7.60;99.90
15257;DHT22;7731;50.720;6.912;2022-11-25T00:49:48;7.70;99.90
15257;DHT22;7731;50.720;6.912;2022-11-25T00:52:22;7.70;99.90
15257;DHT22;7731;50.720;6.912;2022-11-25T00:54:53;7.60;99.90
15257;DHT22;7731;50.720;6.912;2022-11-25T00:57:27;7.60;99.90
15257;DHT22;7731;50.720;6.912;2022-11-25T00:59:58;7.50;99.90
15257;DHT22;7731;50.720;6.912;2022-11-25T01:02:32;7.50;99.90
15257;DHT22;7731;50.720;6.912;2022-11-25T01:05:14;7.50;99.90
15257;DHT22;7731;50.720;6.912;2022-11-25T01:07:45;7.50;99.90
15257;DHT22;7731;50.720;6.912;2022-11-25T01:10:16;7.50;99.90
15257;DHT22;7731;50.720;6.912;2022-11-25T01:12:47;7.50;99.90
15257;DHT22;7731;50.720;6.912;2022-11-25T01:15:17;7.40;99.90
15257;DHT22;7731;50.720;6.912;2022-11-25T01:17:47;7.40;99.90
15257;DHT22;7731;50.720;6.912;2022-11-25T01:20:20;7.40;99.90
15257;DHT22;7731;50.720;6.912;2022-11-25T01:22:53;7.40;99.90
15257;DHT22;7731;50.720;6.912;2022-11-25T01:25:23;7.50;99.90
15257;DHT22;7731;50.720;6.912;2022-11-25T01:27:53;7.50;99.90
15257;DHT22;7731;50.720;6.912;2022-11-25T01:30:23;7.60;99.90
15257;DHT22;7731;50.720;6.912;2022-11-25T01:32:54;7.60;99.90
15257;DHT22;7731;50.720;6.912;2022-11-25T01:35:28;7.60;99.90
15257;DHT22;7731;50.720;6.912;2022-11-25T01:38:01;7.70;99.90
15257;DHT22;7731;50.720;6.912;2022-11-25T01:40:31;7.70;99.90
15257;DHT22;7731;50.720;6.912;2022-11-25T01:43:02;7.70;99.90
15257;DHT22;7731;50.720;6.912;2022-11-25T01:45:42;7.70;99.90
15257;DHT22;7731;50.720;6.912;2022-11-25T01:48:17;7.70;99.90
15257;DHT22;7731;50.720;6.912;2022-11-25T01:50:56;7.80;99.90
15257;DHT22;7731;50.720;6.912;2022-11-25T01:53:26;7.90;99.90
15257;DHT22;7731;50.720;6.912;2022-11-25T01:56:00;8.00;99.90
15257;DHT22;7731;50.720;6.912;2022-11-25T01:58:45;8.10;99.90
15257;DHT22;7731;50.720;6.912;2022-11-25T02:01:19;8.10;99.90
15257;DHT22;7731;50.720;6.912;2022-11-25T02:03:56;8.30;99.90
15257;DHT22;7731;50.720;6.912;2022-11-25T02:06:39;8.40;99.90
15257;DHT22;7731;50.720;6.912;2022-11-25T02:09:17;8.40;99.90
15257;DHT22;7731;50.720;6.912;2022-11-25T02:11:48;8.40;99.90
15257;DHT22;7731;50.720;6.912;2022-11-25T02:14:21;8.40;99.90
15257;DHT22;7731;50.720;6.912;2022-11-25T02:16:54;8.50;99.90
15257;DHT22;7731;50.720;6.912;2022-11-25T02:19:35;8.50;99.90
15257;DHT22;7731;50.720;6.912;2022-11-25T02:22:22;8.40;99.90
15257;DHT22;7731;50.720;6.912;2022-11-25T02:25:10;8.40;99.90
15257;DHT22;7731;50.720;6.912;2022-11-25T02:27:46;8.40;99.90
15257;DHT22;7731;50.720;6.912;2022-11-25T02:30:20;8.50;99.90
15257;DHT22;7731;50.720;6.912;2022-11-25T02:32:51;8.50;99.90
15257;DHT22;7731;50.720;6.912;2022-11-25T02:35:31;8.50;99.90
15257;DHT22;7731;50.720;6.912;2022-11-25T02:38:07;8.40;99.90
15257;DHT22;7731;50.720;6.912;2022-11-25T02:40:46;8.30;99.90
15257;DHT22;7731;50.720;6.912;2022-11-25T02:43:21;8.30;99.90
15257;DHT22;7731;50.720;6.912;2022-11-25T02:46:01;8.30;99.90
15257;DHT22;7731;50.720;6.912;2022-11-25T02:48:38;8.20;99.90
15257;DHT22;7731;50.720;6.912;2022-11-25T02:51:33;8.10;99.90
15257;DHT22;7731;50.720;6.912;2022-11-25T02:54:04;8.10;99.90
15257;DHT22;7731;50.720;6.912;2022-11-25T02:56:38;8.10;99.90
15257;DHT22;7731;50.720;6.912;2022-11-25T02:59:15;8.00;99.90
15257;DHT22;7731;50.720;6.912;2022-11-25T03:01:47;8.00;99.90
15257;DHT22;7731;50.720;6.912;2022-11-25T03:04:18;8.00;99.90
15257;DHT22;7731;50.720;6.912;2022-11-25T03:06:51;7.90;99.90
15257;DHT22;7731;50.720;6.912;2022-11-25T03:09:23;7.90;99.90
15257;DHT22;7731;50.720;6.912;2022-11-25T03:12:01;8.00;99.90
15257;DHT22;7731;50.720;6.912;2022-11-25T03:14:43;7.90;99.90
15257;DHT22;7731;50.720;6.912;2022-11-25T03:17:14;8.00;99.90
15257;DHT22;7731;50.720;6.912;2022-11-25T03:19:45;8.10;99.90
15257;DHT22;7731;50.720;6.912;2022-11-25T03:22:17;8.10;99.90
15257;DHT22;7731;50.720;6.912;2022-11-25T03:24:50;8.20;99.90
15257;DHT22;7731;50.720;6.912;2022-11-25T03:27:26;8.20;99.90
15257;DHT22;7731;50.720;6.912;2022-11-25T03:29:56;8.20;99.90
15257;DHT22;7731;50.720;6.912;2022-11-25T03:32:27;8.20;99.90
15257;DHT22;7731;50.720;6.912;2022-11-25T03:35:00;8.20;99.90
15257;DHT22;7731;50.720;6.912;2022-11-25T03:37:30;8.10;99.90
15257;DHT22;7731;50.720;6.912;2022-11-25T03:40:02;8.20;99.90
15257;DHT22;7731;50.720;6.912;2022-11-25T03:42:37;8.20;99.90
15257;DHT22;7731;50.720;6.912;2022-11-25T03:45:14;8.10;99.90
15257;DHT22;7731;50.720;6.912;2022-11-25T03:47:47;8.10;99.90
15257;DHT22;7731;50.720;6.912;2022-11-25T03:50:17;8.10;99.90
15257;DHT22;7731;50.720;6.912;2022-11-25T03:52:48;8.10;99.90
15257;DHT22;7731;50.720;6.912;2022-11-25T03:55:19;8.20;99.90
15257;DHT22;7731;50.720;6.912;2022-11-25T03:57:55;8.20;99.90
15257;DHT22;7731;50.720;6.912;2022-11-25T04:00:28;8.20;99.90
15257;DHT22;7731;50.720;6.912;2022-11-25T04:02:59;8.30;99.90
15257;DHT22;7731;50.720;6.912;2022-11-25T04:05:32;8.30;99.90
15257;DHT22;7731;50.720;6.912;2022-11-25T04:08:02;8.40;99.90
15257;DHT22;7731;50.720;6.912;2022-11-25T04:10:36;8.40;99.90
15257;DHT22;7731;50.720;6.912;2022-11-25T04:13:10;8.40;99.90
15257;DHT22;7731;50.720;6.912;2022-11-25T04:15:42;8.50;99.90
15257;DHT22;7731;50.720;6.912;2022-11-25T04:18:15;8.50;99.90
15257;DHT22;7731;50.720;6.912;2022-11-25T04:20:55;8.40;99.90
15257;DHT22;7731;50.720;6.912;2022-11-25T04:23:25;8.50;99.90
15257;DHT22;7731;50.720;6.912;2022-11-25T04:26:03;8.60;99.90
15257;DHT22;7731;50.720;6.912;2022-11-25T04:28:36;8.60;99.90
15257;DHT22;7731;50.720;6.912;2022-11-25T04:31:06;8.60;99.90
15257;DHT22;7731;50.720;6.912;2022-11-25T04:33:38;8.60;99.90
15257;DHT22;7731;50.720;6.912;2022-11-25T04:36:08;8.60;99.90
15257;DHT22;7731;50.720;6.912;2022-11-25T04:38:39;8.60;99.90
15257;DHT22;7731;50.720;6.912;2022-11-25T04:41:12;8.60;99.90
15257;DHT22;7731;50.720;6.912;2022-11-25T04:43:45;8.60;99.90
15257;DHT22;7731;50.720;6.912;2022-11-25T04:46:17;8.60;99.90
15257;DHT22;7731;50.720;6.912;2022-11-25T04:48:50;8.60;99.90
15257;DHT22;7731;50.720;6.912;2022-11-25T04:51:20;8.50;99.90
15257;DHT22;7731;50.720;6.912;2022-11-25T04:53:51;8.50;99.90
15257;DHT22;7731;50.720;6.912;2022-11-25T04:56:22;8.50;99.90
15257;DHT22;7731;50.720;6.912;2022-11-25T04:58:55;8.50;99.90
15257;DHT22;7731;50.720;6.912;2022-11-25T05:01:40;8.50;99.90
15257;DHT22;7731;50.720;6.912;2022-11-25T05:04:10;8.50;99.90
15257;DHT22;7731;50.720;6.912;2022-11-25T05:06:40;8.50;99.90
15257;DHT22;7731;50.720;6.912;2022-11-25T05:09:13;8.60;99.90
15257;DHT22;7731;50.720;6.912;2022-11-25T05:11:46;8.50;99.90
15257;DHT22;7731;50.720;6.912;2022-11-25T05:14:21;8.50;99.90
15257;DHT22;7731;50.720;6.912;2022-11-25T05:16:51;8.50;99.90
15257;DHT22;7731;50.720;6.912;2022-11-25T05:19:22;8.50;99.90
15257;DHT22;7731;50.720;6.912;2022-11-25T05:21:53;8.50;99.90
15257;DHT22;7731;50.720;6.912;2022-11-25T05:24:25;8.40;99.90
15257;DHT22;7731;50.720;6.912;2022-11-25T05:27:10;8.40;99.90
15257;DHT22;7731;50.720;6.912;2022-11-25T05:29:50;8.40;99.90
15257;DHT22;7731;50.720;6.912;2022-11-25T05:32:22;8.40;99.90
15257;DHT22;7731;50.720;6.912;2022-11-25T05:34:52;8.40;99.90
15257;DHT22;7731;50.720;6.912;2022-11-25T05:37:23;8.40;99.90
15257;DHT22;7731;50.720;6.912;2022-11-25T05:39:53;8.40;99.90
15257;DHT22;7731;50.720;6.912;2022-11-25T05:42:28;8.50;99.90
15257;DHT22;7731;50.720;6.912;2022-11-25T05:45:01;8.50;99.90
15257;DHT22;7731;50.720;6.912;2022-11-25T05:47:36;8.40;99.90
15257;DHT22;7731;50.720;6.912;2022-11-25T05:50:07;8.40;99.90
15257;DHT22;7731;50.720;6.912;2022-11-25T05:52:37;8.40;99.90
15257;DHT22;7731;50.720;6.912;2022-11-25T05:55:10;8.40;99.90
15257;DHT22;7731;50.720;6.912;2022-11-25T05:57:41;8.40;99.90
15257;DHT22;7731;50.720;6.912;2022-11-25T06:00:18;8.40;99.90
15257;DHT22;7731;50.720;6.912;2022-11-25T06:02:52;8.40;99.90
15257;DHT22;7731;50.720;6.912;2022-11-25T06:05:23;8.40;99.90
15257;DHT22;7731;50.720;6.912;2022-11-25T06:07:54;8.40;99.90
15257;DHT22;7731;50.720;6.912;2022-11-25T06:10:24;8.40;99.90
15257;DHT22;7731;50.720;6.912;2022-11-25T06:12:56;8.40;99.90
15257;DHT22;7731;50.720;6.912;2022-11-25T06:15:31;8.40;99.90
15257;DHT22;7731;50.720;6.912;2022-11-25T06:18:02;8.40;99.90
15257;DHT22;7731;50.720;6.912;2022-11-25T06:20:33;8.40;99.90
15257;DHT22;7731;50.720;6.912;2022-11-25T06:23:04;8.40;99.90
15257;DHT22;7731;50.720;6.912;2022-11-25T06:25:34;8.50;99.90
15257;DHT22;7731;50.720;6.912;2022-11-25T06:28:08;8.50;99.90
15257;DHT22;7731;50.720;6.912;2022-11-25T06:30:44;8.50;99.90
15257;DHT22;7731;50.720;6.912;2022-11-25T06:33:14;8.60;99.90
15257;DHT22;7731;50.720;6.912;2022-11-25T06:35:49;8.60;99.90
15257;DHT22;7731;50.720;6.912;2022-11-25T06:38:27;8.70;99.90
15257;DHT22;7731;50.720;6.912;2022-11-25T06:41:05;8.60;99.90
15257;DHT22;7731;50.720;6.912;2022-11-25T06:43:35;8.60;99.90
15257;DHT22;7731;50.720;6.912;2022-11-25T06:46:11;8.60;99.90
15257;DHT22;7731;50.720;6.912;2022-11-25T06:49:00;8.60;99.90
15257;DHT22;7731;50.720;6.912;2022-11-25T06:51:40;8.70;99.90
15257;DHT22;7731;50.720;6.912;2022-11-25T06:54:10;8.80;99.90
15257;DHT22;7731;50.720;6.912;2022-11-25T06:56:41;8.90;99.90
15257;DHT22;7731;50.720;6.912;2022-11-25T06:59:17;8.80;99.90
15257;DHT22;7731;50.720;6.912;2022-11-25T07:01:50;8.80;99.90
15257;DHT22;7731;50.720;6.912;2022-11-25T07:04:21;8.80;99.90
15257;DHT22;7731;50.720;6.912;2022-11-25T07:06:51;8.80;99.90
15257;DHT22;7731;50.720;6.912;2022-11-25T07:09:24;8.90;99.90
15257;DHT22;7731;50.720;6.912;2022-11-25T07:11:55;8.90;99.90
15257;DHT22;7731;50.720;6.912;2022-11-25T07:14:30;8.90;99.90
15257;DHT22;7731;50.720;6.912;2022-11-25T07:17:08;8.80;99.90
15257;DHT22;7731;50.720;6.912;2022-11-25T07:19:40;8.80;99.90
15257;DHT22;7731;50.720;6.912;2022-11-25T07:22:11;8.70;99.90
15257;DHT22;7731;50.720;6.912;2022-11-25T07:24:41;8.70;99.90
15257;DHT22;7731;50.720;6.912;2022-11-25T07:27:11;8.60;99.90
15257;DHT22;7731;50.720;6.912;2022-11-25T07:29:45;8.60;99.90
15257;DHT22;7731;50.720;6.912;2022-11-25T07:32:41;8.40;99.90
15257;DHT22;7731;50.720;6.912;2022-11-25T07:35:12;8.40;99.90
15257;DHT22;7731;50.720;6.912;2022-11-25T07:37:45;8.30;99.90
15257;DHT22;7731;50.720;6.912;2022-11-25T07:40:19;8.20;99.90
15257;DHT22;7731;50.720;6.912;2022-11-25T07:42:58;8.20;99.90
15257;DHT22;7731;50.720;6.912;2022-11-25T07:45:40;8.10;99.90
15257;DHT22;7731;50.720;6.912;2022-11-25T07:48:15;8.10;99.90
15257;DHT22;7731;50.720;6.912;2022-11-25T07:50:46;8.20;99.90
15257;DHT22;7731;50.720;6.912;2022-11-25T07:53:16;8.40;99.90
15257;DHT22;7731;50.720;6.912;2022-11-25T07:55:53;8.60;99.90
15257;DHT22;7731;50.720;6.912;2022-11-25T07:58:26;8.80;99.90
15257;DHT22;7731;50.720;6.912;2022-11-25T08:00:57;9.00;99.90
15257;DHT22;7731;50.720;6.912;2022-11-25T08:03:34;9.20;99.90
15257;DHT22;7731;50.720;6.912;2022-11-25T08:06:08;9.40;99.90
15257;DHT22;7731;50.720;6.912;2022-11-25T08:08:46;9.40;99.90
15257;DHT22;7731;50.720;6.912;2022-11-25T08:11:20;9.40;99.90
15257;DHT22;7731;50.720;6.912;2022-11-25T08:13:52;9.30;99.90
15257;DHT22;7731;50.720;6.912;2022-11-25T08:16:26;9.30;99.90
15257;DHT22;7731;50.720;6.912;2022-11-25T08:19:03;9.10;99.90
15257;DHT22;7731;50.720;6.912;2022-11-25T08:21:47;9.00;99.90
15257;DHT22;7731;50.720;6.912;2022-11-25T08:24:19;8.90;99.90
15257;DHT22;7731;50.720;6.912;2022-11-25T08:26:49;8.90;99.90
15257;DHT22;7731;50.720;6.912;2022-11-25T08:29:24;9.00;99.90
15257;DHT22;7731;50.720;6.912;2022-11-25T08:31:57;9.20;99.90
15257;DHT22;7731;50.720;6.912;2022-11-25T08:34:36;9.50;99.90
15257;DHT22;7731;50.720;6.912;2022-11-25T08:37:07;9.80;99.90
15257;DHT22;7731;50.720;6.912;2022-11-25T08:39:37;10.40;99.90
15257;DHT22;7731;50.720;6.912;2022-11-25T08:42:19;11.60;99.90
15257;DHT22;7731;50.720;6.912;2022-11-25T08:44:52;12.80;99.90
15257;DHT22;7731;50.720;6.912;2022-11-25T08:47:23;13.60;99.90
15257;DHT22;7731;50.720;6.912;2022-11-25T08:49:56;14.10;99.90
15257;DHT22;7731;50.720;6.912;2022-11-25T08:52:27;15.50;99.90
15257;DHT22;7731;50.720;6.912;2022-11-25T08:54:57;16.40;63.70
15257;DHT22;7731;50.720;6.912;2022-11-25T08:57:27;16.90;7.20
15257;DHT22;7731;50.720;6.912;2022-11-25T09:00:05;16.90;6.70
15257;DHT22;7731;50.720;6.912;2022-11-25T09:02:37;16.90;5.40
15257;DHT22;7731;50.720;6.912;2022-11-25T09:05:11;17.00;9.10
15257;DHT22;7731;50.720;6.912;2022-11-25T09:07:42;17.60;1.00
15257;DHT22;7731;50.720;6.912;2022-11-25T09:10:15;17.80;1.00
15257;DHT22;7731;50.720;6.912;2022-11-25T09:12:47;18.60;1.00
15257;DHT22;7731;50.720;6.912;2022-11-25T09:15:18;18.40;1.00
15257;DHT22;7731;50.720;6.912;2022-11-25T09:17:49;17.90;1.00
15257;DHT22;7731;50.720;6.912;2022-11-25T09:20:41;18.40;1.00
15257;DHT22;7731;50.720;6.912;2022-11-25T09:23:14;18.30;1.00
15257;DHT22;7731;50.720;6.912;2022-11-25T09:25:50;18.10;1.00
15257;DHT22;7731;50.720;6.912;2022-11-25T09:28:22;17.70;1.00
15257;DHT22;7731;50.720;6.912;2022-11-25T09:30:56;17.60;1.00
15257;DHT22;7731;50.720;6.912;2022-11-25T09:33:26;17.70;1.00
15257;DHT22;7731;50.720;6.912;2022-11-25T09:36:04;18.10;1.00
15257;DHT22;7731;50.720;6.912;2022-11-25T09:38:35;18.10;1.00
15257;DHT22;7731;50.720;6.912;2022-11-25T09:41:17;18.50;1.00
15257;DHT22;7731;50.720;6.912;2022-11-25T09:44:19;18.70;1.00
15257;DHT22;7731;50.720;6.912;2022-11-25T09:47:21;18.60;1.00
15257;DHT22;7731;50.720;6.912;2022-11-25T09:50:16;18.50;1.00
15257;DHT22;7731;50.720;6.912;2022-11-25T09:53:05;18.20;1.00
15257;DHT22;7731;50.720;6.912;2022-11-25T09:55:49;18.00;1.00
15257;DHT22;7731;50.720;6.912;2022-11-25T09:58:33;18.70;1.00
15257;DHT22;7731;50.720;6.912;2022-11-25T10:01:14;19.20;1.00
15257;DHT22;7731;50.720;6.912;2022-11-25T10:03:53;18.50;1.00
15257;DHT22;7731;50.720;6.912;2022-11-25T10:06:32;17.50;1.00
15257;DHT22;7731;50.720;6.912;2022-11-25T10:09:14;17.90;1.00
15257;DHT22;7731;50.720;6.912;2022-11-25T10:11:50;18.20;1.00
15257;DHT22;7731;50.720;6.912;2022-11-25T10:14:29;18.50;99.90
15257;DHT22;7731;50.720;6.912;2022-11-25T10:17:08;18.10;1.00
15257;DHT22;7731;50.720;6.912;2022-11-25T10:19:54;17.80;1.00
15257;DHT22;7731;50.720;6.912;2022-11-25T10:22:33;17.90;1.00
15257;DHT22;7731;50.720;6.912;2022-11-25T10:25:16;18.10;1.00
15257;DHT22;7731;50.720;6.912;2022-11-25T10:27:54;18.20;1.00
15257;DHT22;7731;50.720;6.912;2022-11-25T10:30:37;17.90;1.00
15257;DHT22;7731;50.720;6.912;2022-11-25T10:33:17;18.30;1.00
15257;DHT22;7731;50.720;6.912;2022-11-25T10:35:52;18.00;1.00
15257;DHT22;7731;50.720;6.912;2022-11-25T10:38:29;18.10;1.00
15257;DHT22;7731;50.720;6.912;2022-11-25T10:41:12;18.30;1.00
15257;DHT22;7731;50.720;6.912;2022-11-25T10:43:45;18.10;99.90
15257;DHT22;7731;50.720;6.912;2022-11-25T10:46:34;18.00;1.00
15257;DHT22;7731;50.720;6.912;2022-11-25T10:49:33;17.60;1.00
15257;DHT22;7731;50.720;6.912;2022-11-25T10:52:20;17.40;1.00
15257;DHT22;7731;50.720;6.912;2022-11-25T10:55:09;17.20;1.00
15257;DHT22;7731;50.720;6.912;2022-11-25T10:57:51;16.10;1.00
15257;DHT22;7731;50.720;6.912;2022-11-25T11:00:30;15.50;1.00
15257;DHT22;7731;50.720;6.912;2022-11-25T11:03:23;15.50;1.00
15257;DHT22;7731;50.720;6.912;2022-11-25T11:05:57;15.40;17.80
15257;DHT22;7731;50.720;6.912;2022-11-25T11:08:36;15.40;19.80
15257;DHT22;7731;50.720;6.912;2022-11-25T11:11:16;15.70;7.20
15257;DHT22;7731;50.720;6.912;2022-11-25T11:13:59;16.50;1.00
15257;DHT22;7731;50.720;6.912;2022-11-25T11:16:52;16.40;1.00
15257;DHT22;7731;50.720;6.912;2022-11-25T11:19:25;16.70;1.00
15257;DHT22;7731;50.720;6.912;2022-11-25T11:22:15;16.90;1.00
15257;DHT22;7731;50.720;6.912;2022-11-25T11:24:46;16.90;1.00
15257;DHT22;7731;50.720;6.912;2022-11-25T11:27:20;16.50;1.00
15257;DHT22;7731;50.720;6.912;2022-11-25T11:30:08;16.30;1.00
15257;DHT22;7731;50.720;6.912;2022-11-25T11:32:55;15.80;1.00
15257;DHT22;7731;50.720;6.912;2022-11-25T11:35:50;15.30;2.70
15257;DHT22;7731;50.720;6.912;2022-11-25T11:38:33;15.20;24.50
15257;DHT22;7731;50.720;6.912;2022-11-25T11:41:13;15.20;22.50
15257;DHT22;7731;50.720;6.912;2022-11-25T11:44:07;15.40;3.90
15257;DHT22;7731;50.720;6.912;2022-11-25T11:47:08;15.40;10.40
15257;DHT22;7731;50.720;6.912;2022-11-25T11:50:22;15.30;1.00
15257;DHT22;7731;50.720;6.912;2022-11-25T11:53:03;15.10;1.00
15257;DHT22;7731;50.720;6.912;2022-11-25T11:55:49;14.80;16.00
15257;DHT22;7731;50.720;6.912;2022-11-25T11:58:58;14.60;37.60
15257;DHT22;7731;50.720;6.912;2022-11-25T12:01:53;14.40;49.00
15257;DHT22;7731;50.720;6.912;2022-11-25T12:04:51;14.20;90.00
15257;DHT22;7731;50.720;6.912;2022-11-25T12:07:38;14.00;92.90
15257;DHT22;7731;50.720;6.912;2022-11-25T12:10:21;13.90;96.90
15257;DHT22;7731;50.720;6.912;2022-11-25T12:13:07;13.60;99.90
15257;DHT22;7731;50.720;6.912;2022-11-25T12:15:48;13.40;99.90
15257;DHT22;7731;50.720;6.912;2022-11-25T12:18:39;13.20;99.90
15257;DHT22;7731;50.720;6.912;2022-11-25T12:21:28;13.20;99.90
15257;DHT22;7731;50.720;6.912;2022-11-25T12:24:17;13.10;99.90
15257;DHT22;7731;50.720;6.912;2022-11-25T12:27:05;13.10;99.90
15257;DHT22;7731;50.720;6.912;2022-11-25T12:29:44;13.00;99.90
15257;DHT22;7731;50.720;6.912;2022-11-25T12:32:43;12.90;99.90
15257;DHT22;7731;50.720;6.912;2022-11-25T12:35:29;12.70;99.90
15257;DHT22;7731;50.720;6.912;2022-11-25T12:38:26;12.60;99.90
15257;DHT22;7731;50.720;6.912;2022-11-25T12:41:08;12.60;99.90
15257;DHT22;7731;50.720;6.912;2022-11-25T12:43:48;12.90;99.90
15257;DHT22;7731;50.720;6.912;2022-11-25T12:46:34;13.10;99.90
15257;DHT22;7731;50.720;6.912;2022-11-25T12:49:16;13.10;99.90
15257;DHT22;7731;50.720;6.912;2022-11-25T12:52:16;13.30;92.30
15257;DHT22;7731;50.720;6.912;2022-11-25T12:55:09;13.50;97.90
15257;DHT22;7731;50.720;6.912;2022-11-25T12:58:10;13.50;97.00
15257;DHT22;7731;50.720;6.912;2022-11-25T13:04:38;13.30;92.50
15257;DHT22;7731;50.720;6.912;2022-11-25T13:07:57;13.00;99.90
15257;DHT22;7731;50.720;6.912;2022-11-25T13:13:51;12.70;99.90
15257;DHT22;7731;50.720;6.912;2022-11-25T13:16:32;12.70;99.90
15257;DHT22;7731;50.720;6.912;2022-11-25T13:19:07;12.60;99.90
15257;DHT22;7731;50.720;6.912;2022-11-25T13:21:57;12.30;99.90
15257;DHT22;7731;50.720;6.912;2022-11-25T13:24:37;12.10;99.90
15257;DHT22;7731;50.720;6.912;2022-11-25T13:27:28;12.00;99.90
15257;DHT22;7731;50.720;6.912;2022-11-25T13:30:02;12.00;99.90
15257;DHT22;7731;50.720;6.912;2022-11-25T13:32:40;11.90;99.90
15257;DHT22;7731;50.720;6.912;2022-11-25T13:35:48;11.80;99.90
15257;DHT22;7731;50.720;6.912;2022-11-25T13:38:37;11.80;99.90
15257;DHT22;7731;50.720;6.912;2022-11-25T13:41:48;11.80;99.90
15257;DHT22;7731;50.720;6.912;2022-11-25T13:44:34;11.80;99.90
15257;DHT22;7731;50.720;6.912;2022-11-25T13:47:27;11.90;99.90
15257;DHT22;7731;50.720;6.912;2022-11-25T13:50:03;12.10;99.90
15257;DHT22;7731;50.720;6.912;2022-11-25T13:52:46;12.20;99.90
15257;DHT22;7731;50.720;6.912;2022-11-25T13:55:32;12.30;99.90
15257;DHT22;7731;50.720;6.912;2022-11-25T13:58:19;12.30;99.90
15257;DHT22;7731;50.720;6.912;2022-11-25T14:01:20;12.30;99.90
15257;DHT22;7731;50.720;6.912;2022-11-25T14:03:57;12.30;99.90
15257;DHT22;7731;50.720;6.912;2022-11-25T14:10:09;12.30;99.90
15257;DHT22;7731;50.720;6.912;2022-11-25T14:13:17;12.10;99.90
15257;DHT22;7731;50.720;6.912;2022-11-25T14:16:10;11.90;99.90
15257;DHT22;7731;50.720;6.912;2022-11-25T14:22:30;11.60;99.90
15257;DHT22;7731;50.720;6.912;2022-11-25T14:25:28;11.40;99.90
15257;DHT22;7731;50.720;6.912;2022-11-25T14:28:09;11.30;99.90
15257;DHT22;7731;50.720;6.912;2022-11-25T14:30:52;11.20;99.90
15257;DHT22;7731;50.720;6.912;2022-11-25T14:33:32;11.20;99.90
15257;DHT22;7731;50.720;6.912;2022-11-25T14:36:18;11.20;99.90
15257;DHT22;7731;50.720;6.912;2022-11-25T14:38:55;11.10;99.90
15257;DHT22;7731;50.720;6.912;2022-11-25T14:41:35;11.10;99.90
15257;DHT22;7731;50.720;6.912;2022-11-25T14:44:17;11.00;99.90
15257;DHT22;7731;50.720;6.912;2022-11-25T14:46:52;10.90;99.90
15257;DHT22;7731;50.720;6.912;2022-11-25T14:49:44;10.90;99.90
15257;DHT22;7731;50.720;6.912;2022-11-25T14:52:36;10.80;99.90
15257;DHT22;7731;50.720;6.912;2022-11-25T14:55:07;10.80;99.90
15257;DHT22;7731;50.720;6.912;2022-11-25T14:57:42;10.90;99.90
15257;DHT22;7731;50.720;6.912;2022-11-25T15:00:17;10.90;99.90
15257;DHT22;7731;50.720;6.912;2022-11-25T15:02:55;10.90;99.90
15257;DHT22;7731;50.720;6.912;2022-11-25T15:05:31;10.80;99.90
15257;DHT22;7731;50.720;6.912;2022-11-25T15:08:10;10.80;99.90
15257;DHT22;7731;50.720;6.912;2022-11-25T15:10:49;10.70;99.90
15257;DHT22;7731;50.720;6.912;2022-11-25T15:13:29;10.60;99.90
15257;DHT22;7731;50.720;6.912;2022-11-25T15:16:12;10.50;99.90
15257;DHT22;7731;50.720;6.912;2022-11-25T15:18:48;10.40;99.90
15257;DHT22;7731;50.720;6.912;2022-11-25T15:21:27;10.30;99.90
15257;DHT22;7731;50.720;6.912;2022-11-25T15:24:22;10.20;99.90
15257;DHT22;7731;50.720;6.912;2022-11-25T15:26:55;10.30;99.90
15257;DHT22;7731;50.720;6.912;2022-11-25T15:29:29;10.30;99.90
15257;DHT22;7731;50.720;6.912;2022-11-25T15:32:08;10.30;99.90
15257;DHT22;7731;50.720;6.912;2022-11-25T15:34:49;10.20;99.90
15257;DHT22;7731;50.720;6.912;2022-11-25T15:37:21;10.10;99.90
15257;DHT22;7731;50.720;6.912;2022-11-25T15:43:05;9.90;99.90
15257;DHT22;7731;50.720;6.912;2022-11-25T15:45:54;9.80;99.90
15257;DHT22;7731;50.720;6.912;2022-11-25T15:48:38;9.70;99.90
15257;DHT22;7731;50.720;6.912;2022-11-25T15:51:28;9.70;99.90
15257;DHT22;7731;50.720;6.912;2022-11-25T15:54:04;9.80;99.90
15257;DHT22;7731;50.720;6.912;2022-11-25T15:56:49;9.70;99.90
15257;DHT22;7731;50.720;6.912;2022-11-25T15:59:46;9.80;99.90
15257;DHT22;7731;50.720;6.912;2022-11-25T16:02:35;9.80;99.90
15257;DHT22;7731;50.720;6.912;2022-11-25T16:05:27;9.80;99.90
15257;DHT22;7731;50.720;6.912;2022-11-25T16:11:13;9.90;99.90
15257;DHT22;7731;50.720;6.912;2022-11-25T16:13:46;9.90;99.90
15257;DHT22;7731;50.720;6.912;2022-11-25T16:16:22;9.90;99.90
15257;DHT22;7731;50.720;6.912;2022-11-25T16:19:15;9.90;99.90
15257;DHT22;7731;50.720;6.912;2022-11-25T16:21:55;9.90;99.90
15257;DHT22;7731;50.720;6.912;2022-11-25T16:27:25;9.90;99.90
15257;DHT22;7731;50.720;6.912;2022-11-25T16:30:16;9.90;99.90
15257;DHT22;7731;50.720;6.912;2022-11-25T16:32:47;9.90;99.90
15257;DHT22;7731;50.720;6.912;2022-11-25T16:35:21;10.20;99.90
15257;DHT22;7731;50.720;6.912;2022-11-25T16:37:56;10.30;99.90
15257;DHT22;7731;50.720;6.912;2022-11-25T16:40:27;10.20;99.90
15257;DHT22;7731;50.720;6.912;2022-11-25T16:42:57;10.10;99.90
15257;DHT22;7731;50.720;6.912;2022-11-25T16:45:29;10.00;99.90
15257;DHT22;7731;50.720;6.912;2022-11-25T16:48:13;10.00;99.90
15257;DHT22;7731;50.720;6.912;2022-11-25T16:50:46;9.90;99.90
15257;DHT22;7731;50.720;6.912;2022-11-25T16:53:19;9.90;99.90
15257;DHT22;7731;50.720;6.912;2022-11-25T16:55:54;9.90;99.90
15257;DHT22;7731;50.720;6.912;2022-11-25T16:58:25;9.90;99.90
15257;DHT22;7731;50.720;6.912;2022-11-25T17:01:01;9.80;99.90
15257;DHT22;7731;50.720;6.912;2022-11-25T17:03:38;9.90;99.90
15257;DHT22;7731;50.720;6.912;2022-11-25T17:06:16;9.90;99.90
15257;DHT22;7731;50.720;6.912;2022-11-25T17:08:51;9.90;99.90
15257;DHT22;7731;50.720;6.912;2022-11-25T17:11:25;10.00;99.90
15257;DHT22;7731;50.720;6.912;2022-11-25T17:14:00;10.10;99.90
15257;DHT22;7731;50.720;6.912;2022-11-25T17:16:32;10.10;99.90
15257;DHT22;7731;50.720;6.912;2022-11-25T17:19:10;10.00;99.90
15257;DHT22;7731;50.720;6.912;2022-11-25T17:21:44;9.80;99.90
15257;DHT22;7731;50.720;6.912;2022-11-25T17:24:19;9.70;99.90
15257;DHT22;7731;50.720;6.912;2022-11-25T17:26:53;9.60;99.90
15257;DHT22;7731;50.720;6.912;2022-11-25T17:29:30;9.60;99.90